Time;durP1;ratioP1;P1;durP2;ratioP2;P2;SDS_P1;SDS_P2;PMS_P1;PMS_P2;Temp;Humidity;BMP_temperature;BMP_pressure;BME280_temperature;BME280_humidity;BME280_pressure;Samples;Min_cycle;Max_cycle;Signal;HPM_P1;HPM_P2
2022/03/21 00:00:45;;;;;;;52.60;40.97;;;6.60;99.90;;;;;;5066703;28;20036;-80
2022/03/21 00:03:13;;;;;;;56.58;40.65;;;6.70;99.90;;;;;;5066816;28;20048;-80
2022/03/21 00:05:39;;;;;;;56.00;42.17;;;5.40;99.90;;;;;;5067526;28;20040;-82
2022/03/21 00:08:05;;;;;;;55.70;42.13;;;5.40;99.90;;;;;;5065765;28;20071;-79
2022/03/21 00:10:34;;;;;;;58.40;42.28;;;5.30;99.90;;;;;;5068256;28;20036;-80
2022/03/21 00:13:01;;;;;;;52.38;40.08;;;5.30;99.90;;;;;;5066323;28;20114;-79
2022/03/21 00:15:29;;;;;;;54.95;40.17;;;6.40;99.90;;;;;;5066170;28;20430;-79
2022/03/21 00:17:55;;;;;;;60.25;40.33;;;5.40;99.90;;;;;;5050517;28;20407;-83
2022/03/21 00:20:21;;;;;;;54.25;41.60;;;6.70;99.90;;;;;;5066754;28;20047;-80
2022/03/21 00:22:46;;;;;;;54.83;40.22;;;6.30;99.90;;;;;;5066024;28;20430;-82
2022/03/21 00:25:12;;;;;;;49.65;38.60;;;6.70;99.90;;;;;;5051949;28;20039;-80
2022/03/21 00:27:38;;;;;;;52.30;39.90;;;5.50;99.90;;;;;;5071464;28;20044;-82
2022/03/21 00:30:05;;;;;;;59.60;40.67;;;5.40;99.90;;;;;;5053069;28;20056;-81
2022/03/21 00:32:31;;;;;;;50.45;40.33;;;5.50;99.90;;;;;;5071118;28;20045;-80
2022/03/21 00:34:57;;;;;;;55.55;40.70;;;5.20;99.90;;;;;;5070686;28;20102;-79
2022/03/21 00:37:23;;;;;;;54.55;41.60;;;5.40;99.90;;;;;;5053795;28;20075;-80
2022/03/21 00:39:51;;;;;;;51.95;39.20;;;5.40;99.90;;;;;;5072135;28;20048;-81
2022/03/21 00:42:17;;;;;;;55.25;39.83;;;5.20;99.90;;;;;;5071894;28;20048;-81
2022/03/21 00:44:42;;;;;;;51.58;39.60;;;5.30;99.90;;;;;;5070846;28;20048;-80
2022/03/21 00:47:08;;;;;;;51.78;39.55;;;5.20;99.90;;;;;;5053673;28;20048;-81
2022/03/21 00:49:34;;;;;;;52.40;40.28;;;5.40;99.90;;;;;;5072632;28;20032;-80
2022/03/21 00:52:00;;;;;;;53.00;38.78;;;5.30;99.90;;;;;;5069217;28;20044;-80
2022/03/21 00:54:25;;;;;;;50.72;39.10;;;5.30;99.90;;;;;;5054281;28;20072;-80
2022/03/21 00:56:52;;;;;;;54.28;40.63;;;7.10;99.90;;;;;;5070582;28;20059;-80
2022/03/21 00:59:17;;;;;;;57.90;42.10;;;4.90;99.90;;;;;;5069618;28;20037;-79
2022/03/21 01:01:43;;;;;;;56.25;40.17;;;5.10;99.90;;;;;;5053570;28;20052;-79
2022/03/21 01:04:09;;;;;;;55.95;40.63;;;5.20;99.90;;;;;;5070942;28;20036;-82
2022/03/21 01:06:35;;;;;;;53.40;39.05;;;4.90;99.90;;;;;;5070496;28;20251;-83
2022/03/21 01:09:01;;;;;;;50.97;39.83;;;5.10;99.90;;;;;;5053438;28;20037;-81
2022/03/21 01:11:27;;;;;;;59.28;39.28;;;4.70;99.90;;;;;;5069225;28;20044;-79
2022/03/21 01:13:53;;;;;;;48.20;36.92;;;5.30;99.90;;;;;;5053512;28;20049;-80
2022/03/21 01:16:19;;;;;;;50.47;38.28;;;5.00;99.90;;;;;;5036373;28;20657;-79
2022/03/21 01:18:45;;;;;;;49.20;37.88;;;7.20;99.90;;;;;;5070145;28;20043;-80
2022/03/21 01:21:11;;;;;;;48.15;37.03;;;5.00;99.90;;;;;;5069649;28;20534;-81
2022/03/21 01:23:37;;;;;;;54.08;37.33;;;8.50;99.90;;;;;;5070252;28;20036;-82
2022/03/21 01:26:03;;;;;;;51.42;37.63;;;4.90;99.90;;;;;;5070157;28;20342;-81
2022/03/21 01:28:28;;;;;;;48.47;36.53;;;5.40;99.90;;;;;;5070210;28;20051;-81
2022/03/21 01:30:54;;;;;;;51.92;37.05;;;5.10;99.90;;;;;;5052451;28;20045;-82
2022/03/21 01:33:20;;;;;;;48.78;36.30;;;5.10;99.90;;;;;;5068555;28;20443;-82
2022/03/21 01:35:45;;;;;;;46.88;35.42;;;5.10;99.90;;;;;;5070492;28;20115;-80
2022/03/21 01:38:11;;;;;;;48.58;36.60;;;4.80;99.90;;;;;;5069738;28;20476;-79
2022/03/21 01:40:36;;;;;;;47.67;35.85;;;4.90;99.90;;;;;;5069409;28;20391;-80
2022/03/21 01:43:08;;;;;;;47.90;36.53;;;5.00;99.90;;;;;;5068624;28;20521;-81
2022/03/21 01:45:33;;;;;;;50.20;35.17;;;6.10;99.90;;;;;;5071362;28;20029;-80
2022/03/21 01:47:59;;;;;;;47.75;35.38;;;5.00;99.90;;;;;;5051441;28;20163;-80
2022/03/21 01:50:25;;;;;;;48.22;36.53;;;6.90;99.90;;;;;;5036142;28;20040;-81
2022/03/21 01:55:43;;;;;;;49.13;34.75;;;4.50;99.90;;;;;;5052201;28;20048;-81
2022/03/21 01:55:56;;;;;;;46.28;34.00;;;4.60;99.90;;;;;;5065122;28;20041;-81
2022/03/21 01:58:24;;;;;;;43.05;32.97;;;4.70;99.90;;;;;;5061372;28;20055;-79
2022/03/21 02:00:51;;;;;;;47.75;33.70;;;4.50;99.90;;;;;;5068853;28;20362;-82
2022/03/21 02:03:19;;;;;;;46.53;34.78;;;6.60;99.90;;;;;;5051961;28;20059;-80
2022/03/21 02:05:47;;;;;;;44.40;34.53;;;4.70;99.90;;;;;;5070643;28;20033;-81
2022/03/21 02:08:13;;;;;;;45.15;34.15;;;4.60;99.90;;;;;;5051380;28;20052;-80
2022/03/21 02:10:43;;;;;;;45.15;32.33;;;4.00;99.90;;;;;;5052423;28;20032;-81
2022/03/21 02:13:10;;;;;;;44.97;32.72;;;4.60;99.90;;;;;;5068602;28;20041;-81
2022/03/21 02:15:36;;;;;;;43.55;32.30;;;4.50;99.90;;;;;;5052166;28;20487;-82
2022/03/21 02:18:03;;;;;;;43.53;32.88;;;4.00;99.90;;;;;;5052109;28;20056;-80
2022/03/21 02:20:35;;;;;;;45.08;31.42;;;5.40;99.90;;;;;;5069268;28;20043;-80
2022/03/21 02:23:20;;;;;;;40.10;30.95;;;5.80;99.90;;;;;;5067392;28;20037;-81
2022/03/21 02:25:47;;;;;;;40.28;30.63;;;4.20;99.90;;;;;;5052225;28;20090;-80
2022/03/21 02:28:15;;;;;;;38.60;29.60;;;4.50;99.90;;;;;;5052249;28;20134;-79
2022/03/21 02:30:53;;;;;;;38.25;29.58;;;4.30;99.90;;;;;;5068011;28;20751;-80
2022/03/21 02:33:19;;;;;;;37.95;28.95;;;4.20;99.90;;;;;;5051869;28;20048;-80
2022/03/21 02:35:50;;;;;;;39.53;28.52;;;4.50;99.90;;;;;;5067638;28;20095;-79
2022/03/21 02:38:19;;;;;;;36.53;28.02;;;4.40;99.90;;;;;;5068273;28;20043;-82
2022/03/21 02:40:45;;;;;;;40.60;28.20;;;4.40;99.90;;;;;;5069875;28;20331;-79
2022/03/21 02:43:11;;;;;;;37.60;27.58;;;4.40;99.90;;;;;;5051093;28;20048;-79
2022/03/21 02:45:36;;;;;;;37.38;28.60;;;4.40;99.90;;;;;;5052552;28;20037;-83
2022/03/21 02:48:02;;;;;;;39.45;28.17;;;4.40;99.90;;;;;;5050905;28;20067;-80
2022/03/21 02:50:55;;;;;;;40.58;28.77;;;4.40;99.90;;;;;;5068119;28;20037;-79
2022/03/21 02:53:22;;;;;;;37.53;26.85;;;3.90;99.90;;;;;;5051423;28;20062;-79
2022/03/21 02:55:56;;;;;;;35.50;26.92;;;4.00;99.90;;;;;;5069489;28;20063;-81
2022/03/21 02:58:22;;;;;;;38.13;27.05;;;4.80;99.90;;;;;;5055968;28;20500;-80
2022/03/21 03:00:48;;;;;;;36.88;26.48;;;3.80;99.90;;;;;;5050994;28;20082;-79
2022/03/21 03:03:14;;;;;;;36.95;28.25;;;4.20;99.90;;;;;;5050915;28;20052;-81
2022/03/21 03:05:40;;;;;;;37.70;26.90;;;6.50;99.90;;;;;;5050803;28;20040;-80
2022/03/21 03:08:06;;;;;;;34.60;26.52;;;4.20;99.90;;;;;;5067862;28;20055;-81
2022/03/21 03:10:31;;;;;;;35.65;25.48;;;4.30;99.90;;;;;;5067548;28;20035;-80
2022/03/21 03:12:57;;;;;;;35.30;26.10;;;4.10;99.90;;;;;;5067153;28;20105;-79
2022/03/21 03:15:23;;;;;;;35.08;24.38;;;4.10;99.90;;;;;;5067964;28;20488;-80
2022/03/21 03:17:48;;;;;;;38.05;26.20;;;4.10;99.90;;;;;;5066938;28;20377;-82
2022/03/21 03:20:15;;;;;;;39.60;25.13;;;3.70;99.90;;;;;;5067288;28;20461;-81
2022/03/21 03:22:41;;;;;;;37.05;26.23;;;3.90;99.90;;;;;;5068871;28;20040;-79
2022/03/21 03:25:07;;;;;;;32.63;25.27;;;3.40;99.90;;;;;;5066569;28;20136;-79
2022/03/21 03:27:33;;;;;;;35.25;24.30;;;4.00;99.90;;;;;;5067976;28;20047;-80
2022/03/21 03:30:01;;;;;;;32.00;23.65;;;3.70;99.90;;;;;;5050643;28;20045;-82
2022/03/21 03:32:28;;;;;;;33.35;23.48;;;4.00;99.90;;;;;;5066642;28;20097;-80
2022/03/21 03:34:54;;;;;;;32.50;22.08;;;6.00;99.90;;;;;;5067217;28;20037;-80
2022/03/21 03:37:20;;;;;;;31.83;22.05;;;3.60;99.90;;;;;;5067452;28;20403;-82
2022/03/21 03:39:46;;;;;;;29.25;21.80;;;3.90;99.90;;;;;;5066752;28;20036;-79
2022/03/21 03:42:12;;;;;;;31.05;20.15;;;3.30;99.90;;;;;;5050419;28;20075;-80
2022/03/21 03:44:38;;;;;;;32.17;20.65;;;3.60;99.90;;;;;;5050851;28;20507;-79
2022/03/21 03:47:04;;;;;;;28.55;19.40;;;4.00;99.90;;;;;;5066053;28;20052;-82
2022/03/21 03:49:29;;;;;;;25.20;19.27;;;4.00;99.90;;;;;;5051075;28;20404;-81
2022/03/21 03:51:55;;;;;;;27.40;17.90;;;3.90;99.90;;;;;;5066431;28;20040;-79
2022/03/21 03:54:21;;;;;;;26.10;18.30;;;3.50;99.90;;;;;;5050057;28;20083;-80
2022/03/21 03:56:46;;;;;;;25.05;17.25;;;3.80;99.90;;;;;;5067322;28;20075;-82
2022/03/21 03:59:13;;;;;;;27.63;18.92;;;5.70;99.90;;;;;;5066899;28;20060;-80
2022/03/21 04:01:39;;;;;;;24.02;17.75;;;4.00;99.90;;;;;;5049613;28;20051;-80
2022/03/21 04:04:05;;;;;;;29.25;17.08;;;4.00;99.90;;;;;;5066525;28;20045;-82
2022/03/21 04:06:31;;;;;;;21.75;16.13;;;3.70;99.90;;;;;;5068440;28;20047;-81
2022/03/21 04:08:58;;;;;;;22.35;16.73;;;3.90;99.90;;;;;;5067751;28;20040;-78
2022/03/21 04:11:24;;;;;;;23.55;16.42;;;3.70;99.90;;;;;;5067905;28;20048;-80
2022/03/21 04:13:50;;;;;;;22.77;15.93;;;3.60;99.90;;;;;;5049726;28;20381;-81
2022/03/21 04:16:16;;;;;;;25.92;16.95;;;3.90;99.90;;;;;;5050422;28;20059;-81
2022/03/21 04:18:42;;;;;;;21.15;15.05;;;3.50;99.90;;;;;;5050511;28;20035;-79
2022/03/21 04:21:08;;;;;;;22.40;16.30;;;5.50;99.90;;;;;;5065396;28;20049;-82
2022/03/21 04:23:34;;;;;;;24.15;16.00;;;6.00;99.90;;;;;;5050372;28;20040;-80
2022/03/21 04:26:00;;;;;;;27.50;17.17;;;3.90;99.90;;;;;;5066709;28;20032;-80
2022/03/21 04:28:26;;;;;;;23.08;15.50;;;5.10;99.90;;;;;;5066554;28;20373;-78
2022/03/21 04:30:51;;;;;;;26.13;15.90;;;3.20;99.90;;;;;;5049753;28;20091;-79
2022/03/21 04:33:17;;;;;;;18.60;15.25;;;3.40;99.90;;;;;;5066604;28;20040;-79
2022/03/21 04:35:43;;;;;;;19.95;14.60;;;3.40;99.90;;;;;;5066844;28;20078;-78
2022/03/21 04:38:14;;;;;;;21.95;14.98;;;3.70;99.90;;;;;;5066407;28;20041;-78
2022/03/21 04:40:45;;;;;;;23.40;15.23;;;3.50;99.90;;;;;;5067084;28;20036;-80
2022/03/21 04:43:13;;;;;;;21.75;14.75;;;3.70;99.90;;;;;;5066165;28;20048;-80
2022/03/21 04:45:39;;;;;;;23.52;15.55;;;3.40;99.90;;;;;;5067165;28;20036;-79
2022/03/21 04:48:05;;;;;;;22.23;13.98;;;3.40;99.90;;;;;;5067564;28;20075;-79
2022/03/21 04:50:32;;;;;;;18.73;13.32;;;5.20;99.90;;;;;;5065850;28;20079;-78
2022/03/21 04:52:59;;;;;;;18.48;14.10;;;3.70;99.90;;;;;;5066113;28;20045;-78
2022/03/21 04:55:25;;;;;;;21.48;14.90;;;3.20;99.90;;;;;;5050256;28;20048;-79
2022/03/21 04:57:51;;;;;;;21.42;15.27;;;6.00;99.90;;;;;;5067116;28;20048;-78
2022/03/21 05:00:17;;;;;;;20.25;14.30;;;3.70;99.90;;;;;;5049584;28;20396;-79
2022/03/21 05:02:42;;;;;;;19.95;14.60;;;3.70;99.90;;;;;;5049699;28;20144;-80
2022/03/21 05:05:11;;;;;;;22.80;14.45;;;3.70;99.90;;;;;;5067199;28;20072;-78
2022/03/21 05:07:45;;;;;;;20.92;15.00;;;3.60;99.90;;;;;;5060311;28;20127;-80
2022/03/21 05:10:12;;;;;;;26.70;15.15;;;3.60;99.90;;;;;;5066996;28;20396;-79
2022/03/21 05:12:37;;;;;;;20.42;14.60;;;5.00;99.90;;;;;;5069824;28;20032;-79
2022/03/21 05:15:06;;;;;;;21.92;15.00;;;3.10;99.90;;;;;;5070250;28;21057;-78
2022/03/21 05:17:33;;;;;;;20.45;14.05;;;3.50;99.90;;;;;;5053223;28;20048;-79
2022/03/21 05:19:59;;;;;;;21.00;14.18;;;3.00;99.90;;;;;;5070506;28;20043;-79
2022/03/21 05:22:25;;;;;;;21.52;13.25;;;2.90;99.90;;;;;;5053245;28;20044;-78
2022/03/21 05:30:57;;;;;;;23.05;15.07;;;2.90;99.90;;;;;;5070243;28;20203;-80
2022/03/21 05:36:02;;;;;;;20.42;13.40;;;3.40;99.90;;;;;;5069591;28;20044;-81
2022/03/21 05:38:30;;;;;;;19.45;13.82;;;3.30;99.90;;;;;;5052863;28;20056;-80
2022/03/21 05:41:00;;;;;;;17.75;13.23;;;3.30;99.90;;;;;;5069450;28;20114;-81
2022/03/21 05:43:27;;;;;;;20.60;15.00;;;3.40;99.90;;;;;;5069847;28;20042;-79
2022/03/21 05:45:53;;;;;;;21.38;14.13;;;4.70;99.90;;;;;;5068478;28;20037;-79
2022/03/21 05:51:04;;;;;;;18.05;14.00;;;4.00;99.90;;;;;;5070113;28;20421;-79
2022/03/21 05:53:30;;;;;;;21.33;13.77;;;3.20;99.90;;;;;;5051965;28;20045;-79
2022/03/21 05:55:58;;;;;;;19.95;14.48;;;3.20;99.90;;;;;;5069320;28;20055;-81
2022/03/21 05:58:24;;;;;;;21.33;14.52;;;3.40;99.90;;;;;;5069646;28;20044;-80
2022/03/21 06:00:49;;;;;;;19.85;15.25;;;3.40;99.90;;;;;;5051777;28;20052;-80
2022/03/21 06:03:15;;;;;;;22.13;14.75;;;2.60;99.90;;;;;;5070235;28;20049;-79
2022/03/21 06:05:41;;;;;;;20.45;13.55;;;2.60;99.90;;;;;;5070012;28;20079;-79
2022/03/21 06:08:08;;;;;;;23.17;14.35;;;2.90;99.90;;;;;;5068347;28;20473;-80
2022/03/21 06:10:36;;;;;;;22.35;14.40;;;3.00;99.90;;;;;;5052332;28;20510;-81
2022/03/21 06:13:05;;;;;;;22.50;14.30;;;3.00;99.90;;;;;;5052300;28;20135;-80
2022/03/21 06:15:35;;;;;;;20.55;14.45;;;2.40;99.90;;;;;;5068619;28;20382;-78
2022/03/21 06:18:01;;;;;;;21.38;13.93;;;4.60;99.90;;;;;;5069011;28;20043;-78
2022/03/21 06:20:28;;;;;;;23.02;14.60;;;2.70;99.90;;;;;;5069723;28;20046;-78
2022/03/21 06:22:53;;;;;;;23.95;15.57;;;2.50;99.90;;;;;;5068279;28;20048;-80
2022/03/21 06:25:19;;;;;;;22.25;14.23;;;3.10;99.90;;;;;;5068907;28;20098;-79
2022/03/21 06:27:45;;;;;;;19.35;14.27;;;3.00;99.90;;;;;;5069544;28;20458;-79
2022/03/21 06:30:10;;;;;;;21.25;14.45;;;2.80;99.90;;;;;;5068480;28;20324;-79
2022/03/21 06:32:37;;;;;;;23.60;14.55;;;3.30;99.90;;;;;;5051941;28;20057;-80
2022/03/21 06:35:04;;;;;;;25.88;14.73;;;2.70;99.90;;;;;;5034842;28;20041;-80
2022/03/21 06:37:31;;;;;;;22.45;14.00;;;3.00;99.90;;;;;;5070597;28;20052;-79
2022/03/21 06:39:57;;;;;;;27.48;15.93;;;4.10;99.90;;;;;;5068103;28;20088;-79
2022/03/21 06:42:23;;;;;;;17.85;13.93;;;2.70;99.90;;;;;;5069223;28;20488;-79
2022/03/21 06:44:49;;;;;;;20.23;14.77;;;3.00;99.90;;;;;;5068749;28;20143;-79
2022/03/21 06:47:17;;;;;;;21.83;15.38;;;4.60;99.90;;;;;;5068172;28;20045;-79
2022/03/21 06:49:43;;;;;;;22.83;13.90;;;5.30;99.90;;;;;;5051229;28;20048;-79
2022/03/21 06:52:09;;;;;;;23.42;15.75;;;3.50;99.90;;;;;;5051618;28;20045;-79
2022/03/21 06:54:36;;;;;;;18.80;15.10;;;2.90;99.90;;;;;;5068165;28;20044;-79
2022/03/21 06:57:02;;;;;;;21.08;14.70;;;2.90;99.90;;;;;;5067311;28;20048;-79
2022/03/21 06:59:29;;;;;;;21.13;14.85;;;3.40;99.90;;;;;;5068558;28;20090;-79
2022/03/21 07:01:56;;;;;;;21.25;16.15;;;3.40;99.90;;;;;;5067681;28;20067;-79
2022/03/21 07:04:21;;;;;;;21.83;15.77;;;3.50;99.90;;;;;;5067380;28;20049;-78
2022/03/21 07:06:47;;;;;;;24.40;17.60;;;3.40;99.90;;;;;;5051434;28;20052;-78
2022/03/21 07:09:13;;;;;;;26.38;18.75;;;4.10;99.90;;;;;;5067334;28;20127;-79
2022/03/21 07:11:38;;;;;;;29.85;18.70;;;3.60;99.90;;;;;;5068523;28;20127;-78
2022/03/21 07:14:04;;;;;;;28.98;18.88;;;3.70;99.90;;;;;;5067603;28;20270;-78
2022/03/21 07:16:30;;;;;;;34.20;20.63;;;4.30;99.90;;;;;;5068099;28;20101;-79
2022/03/21 07:18:55;;;;;;;31.05;21.88;;;3.70;99.90;;;;;;5068263;28;20869;-79
2022/03/21 07:21:21;;;;;;;31.90;21.55;;;3.60;99.90;;;;;;5068632;28;20037;-79
2022/03/21 07:23:47;;;;;;;31.00;21.13;;;5.20;99.90;;;;;;5050576;28;20043;-79
2022/03/21 07:26:14;;;;;;;34.97;23.08;;;4.10;99.90;;;;;;5067860;28;20546;-79
2022/03/21 07:28:39;;;;;;;31.17;22.48;;;4.10;99.90;;;;;;5069104;28;20037;-78
2022/03/21 07:31:09;;;;;;;33.25;21.83;;;4.10;99.90;;;;;;5067454;28;20053;-79
2022/03/21 07:33:36;;;;;;;32.45;22.95;;;4.10;99.90;;;;;;5068616;28;20079;-79
2022/03/21 07:36:03;;;;;;;40.95;24.13;;;4.30;99.90;;;;;;5068790;28;20041;-78
2022/03/21 07:38:29;;;;;;;31.80;22.05;;;4.40;99.90;;;;;;5050423;28;20098;-79
2022/03/21 07:40:56;;;;;;;31.38;21.90;;;4.40;99.90;;;;;;5050631;28;20047;-79
2022/03/21 07:43:21;;;;;;;28.75;20.52;;;4.50;99.90;;;;;;5050809;28;20040;-79
2022/03/21 07:48:32;;;;;;;30.08;22.33;;;4.50;99.90;;;;;;5067867;28;20044;-79
2022/03/21 07:50:58;;;;;;;34.15;21.70;;;4.80;99.90;;;;;;5049987;28;20810;-79
2022/03/21 07:53:24;;;;;;;32.30;20.15;;;4.40;99.90;;;;;;5068062;28;20036;-78
2022/03/21 07:55:50;;;;;;;32.25;21.00;;;4.60;99.90;;;;;;5068590;28;20055;-79
2022/03/21 07:58:16;;;;;;;34.83;21.30;;;4.70;99.90;;;;;;5068352;28;20043;-80
2022/03/21 08:00:43;;;;;;;29.23;21.00;;;4.70;99.90;;;;;;5049982;28;20060;-79
2022/03/21 08:03:11;;;;;;;28.05;20.75;;;5.00;99.90;;;;;;5066907;28;20118;-81
2022/03/21 08:05:37;;;;;;;34.28;25.02;;;5.20;99.90;;;;;;5067594;28;20072;-79
2022/03/21 08:08:03;;;;;;;34.03;23.75;;;5.20;99.90;;;;;;5066089;28;20400;-82
2022/03/21 08:10:29;;;;;;;33.03;20.85;;;5.50;99.90;;;;;;5068308;28;20037;-79
2022/03/21 08:12:56;;;;;;;32.03;21.00;;;5.50;99.90;;;;;;5067276;28;20047;-79
2022/03/21 08:15:22;;;;;;;29.20;20.02;;;5.50;99.90;;;;;;5068304;28;20380;-79
2022/03/21 08:17:57;;;;;;;33.60;21.48;;;5.70;99.90;;;;;;5050329;28;20036;-79
2022/03/21 08:20:25;;;;;;;32.28;21.17;;;5.80;99.90;;;;;;5066094;28;20037;-79
2022/03/21 08:22:52;;;;;;;29.98;20.77;;;5.80;99.90;;;;;;5066459;28;20085;-79
2022/03/21 08:25:20;;;;;;;35.45;22.38;;;6.00;99.90;;;;;;5066690;28;20194;-79
2022/03/21 08:27:47;;;;;;;29.13;21.10;;;6.20;99.90;;;;;;5066034;28;20127;-80
2022/03/21 08:30:15;;;;;;;31.42;21.60;;;6.20;99.90;;;;;;5049741;28;20048;-79
2022/03/21 08:32:45;;;;;;;29.95;21.85;;;6.30;99.90;;;;;;5066845;28;20052;-79
2022/03/21 08:35:11;;;;;;;35.22;23.23;;;6.40;99.90;;;;;;5067281;28;20439;-79
2022/03/21 08:37:37;;;;;;;36.85;22.98;;;6.40;99.90;;;;;;5068447;28;20093;-79
2022/03/21 08:40:03;;;;;;;31.42;21.23;;;6.50;99.90;;;;;;5068147;28;20115;-79
2022/03/21 08:42:29;;;;;;;38.50;21.75;;;6.70;99.90;;;;;;5065839;28;20170;-78
2022/03/21 08:44:56;;;;;;;31.33;21.77;;;6.80;99.90;;;;;;5067928;28;20497;-78
2022/03/21 08:47:22;;;;;;;33.63;21.55;;;7.00;99.90;;;;;;5071468;28;20055;-79
2022/03/21 08:49:47;;;;;;;31.08;21.48;;;7.00;99.90;;;;;;5070960;28;20484;-78
2022/03/21 08:52:13;;;;;;;31.05;22.30;;;7.10;99.90;;;;;;5071302;28;20063;-79
2022/03/21 08:54:42;;;;;;;32.20;22.50;;;7.20;99.90;;;;;;5070979;28;20145;-78
2022/03/21 08:57:08;;;;;;;38.78;21.92;;;7.20;99.90;;;;;;5070768;28;20070;-80
2022/03/21 08:59:33;;;;;;;31.15;21.98;;;7.30;99.90;;;;;;5070298;28;20068;-78
2022/03/21 09:01:59;;;;;;;36.88;22.33;;;7.90;99.90;;;;;;5053127;28;20499;-79
2022/03/21 09:04:24;;;;;;;35.28;24.02;;;7.50;99.90;;;;;;5071256;28;20339;-79
2022/03/21 09:06:50;;;;;;;32.13;23.25;;;7.60;99.90;;;;;;5071355;28;20400;-79
2022/03/21 09:09:18;;;;;;;31.98;23.08;;;9.60;99.90;;;;;;5069665;28;20042;-78
2022/03/21 09:11:44;;;;;;;32.83;21.90;;;7.80;99.90;;;;;;5071091;28;20048;-79
2022/03/21 09:14:09;;;;;;;31.75;22.25;;;7.90;99.90;;;;;;5070104;28;20036;-78
2022/03/21 09:16:38;;;;;;;30.90;21.30;;;8.00;99.90;;;;;;5070834;28;20385;-78
2022/03/21 09:19:03;;;;;;;33.95;22.83;;;8.20;99.90;;;;;;5070967;28;20335;-79
2022/03/21 09:21:29;;;;;;;48.22;29.75;;;8.20;99.90;;;;;;5071027;28;20040;-80
2022/03/21 09:23:55;;;;;;;36.08;22.13;;;8.40;99.90;;;;;;5068949;28;20098;-79
2022/03/21 09:26:21;;;;;;;35.83;22.13;;;8.50;99.90;;;;;;5071025;28;20472;-79
2022/03/21 09:28:48;;;;;;;32.22;20.98;;;8.50;99.90;;;;;;5071111;28;20135;-79
2022/03/21 09:31:14;;;;;;;35.92;20.23;;;8.60;99.90;;;;;;5068688;28;20084;-78
2022/03/21 09:33:41;;;;;;;35.75;23.17;;;8.70;99.90;;;;;;5069892;28;20045;-79
2022/03/21 09:36:08;;;;;;;29.67;22.40;;;8.80;99.90;;;;;;5069259;28;20126;-79
2022/03/21 09:38:34;;;;;;;32.72;22.98;;;9.20;99.90;;;;;;5067745;28;20042;-80
2022/03/21 09:41:03;;;;;;;33.53;21.70;;;9.00;99.90;;;;;;5046487;28;20048;-79
2022/03/21 09:43:29;;;;;;;32.85;21.85;;;9.20;99.90;;;;;;5069735;28;20041;-79
2022/03/21 09:45:58;;;;;;;29.08;21.77;;;9.30;99.90;;;;;;5068759;28;20045;-80
2022/03/21 09:48:26;;;;;;;28.58;21.38;;;9.30;99.90;;;;;;5053225;28;20036;-79
2022/03/21 09:50:54;;;;;;;30.05;20.73;;;9.40;99.90;;;;;;5069086;28;20044;-78
2022/03/21 09:53:21;;;;;;;31.38;20.83;;;9.50;99.90;;;;;;5052601;28;20048;-79
2022/03/21 09:55:47;;;;;;;30.77;20.10;;;10.80;99.90;;;;;;5069273;28;20426;-79
2022/03/21 09:58:13;;;;;;;28.35;19.65;;;9.70;99.90;;;;;;5069068;28;20119;-79
2022/03/21 10:00:40;;;;;;;24.65;18.10;;;9.80;99.90;;;;;;5070209;28;20472;-81
2022/03/21 10:03:07;;;;;;;27.85;19.98;;;9.90;99.90;;;;;;5062060;28;20089;-79
2022/03/21 10:05:34;;;;;;;26.00;20.02;;;10.00;99.90;;;;;;5069905;28;20240;-79
2022/03/21 10:08:25;;;;;;;28.25;21.55;;;10.10;99.90;;;;;;5070011;28;20052;-78
2022/03/21 10:10:56;;;;;;;24.13;18.67;;;10.10;99.90;;;;;;5070340;28;20045;-78
2022/03/21 10:13:25;;;;;;;30.52;19.83;;;10.30;99.90;;;;;;5068545;28;20065;-78
2022/03/21 10:16:15;;;;;;;27.25;20.30;;;10.20;99.90;;;;;;5068896;28;20045;-80
2022/03/21 10:18:53;;;;;;;26.35;18.73;;;10.40;99.90;;;;;;5069182;28;20036;-79
2022/03/21 10:21:20;;;;;;;17.02;14.00;;;10.40;99.90;;;;;;5061441;28;20083;-78
2022/03/21 10:24:07;;;;;;;23.98;17.80;;;10.50;99.90;;;;;;5070424;28;20397;-79
2022/03/21 10:26:36;;;;;;;25.20;19.75;;;10.50;99.90;;;;;;5070285;28;20036;-78
2022/03/21 10:29:06;;;;;;;29.15;16.25;;;10.60;99.90;;;;;;5068333;28;20044;-79
2022/03/21 10:31:43;;;;;;;22.98;17.65;;;10.80;99.90;;;;;;5068677;28;20044;-79
2022/03/21 10:34:11;;;;;;;23.45;16.63;;;10.90;99.90;;;;;;5061164;28;20032;-83
2022/03/21 10:37:03;;;;;;;23.15;16.58;;;11.00;99.20;;;;;;5070377;28;20067;-79
2022/03/21 10:39:30;;;;;;;21.75;17.63;;;11.00;99.00;;;;;;5064618;28;20056;-79
2022/03/21 10:42:00;;;;;;;19.88;15.25;;;11.10;99.90;;;;;;5068897;28;20088;-79
2022/03/21 10:44:26;;;;;;;26.67;16.13;;;11.20;99.90;;;;;;5069010;28;20059;-79
2022/03/21 10:46:59;;;;;;;22.70;17.58;;;11.30;98.90;;;;;;5069757;28;20036;-80
2022/03/21 10:49:38;;;;;;;24.13;17.00;;;11.40;98.40;;;;;;5067604;28;20119;-79
2022/03/21 10:52:06;;;;;;;22.23;16.48;;;11.40;97.90;;;;;;5067511;28;20032;-79
2022/03/21 10:54:39;;;;;;;24.02;15.70;;;11.50;98.00;;;;;;5068704;28;20123;-80
2022/03/21 10:57:07;;;;;;;21.90;15.50;;;11.50;98.30;;;;;;5067390;28;20092;-79
2022/03/21 10:59:33;;;;;;;21.85;14.93;;;11.70;97.00;;;;;;5068307;28;20178;-82
2022/03/21 11:02:11;;;;;;;20.73;15.50;;;11.70;96.30;;;;;;5050071;28;20044;-79
2022/03/21 11:04:37;;;;;;;19.10;14.75;;;11.80;96.10;;;;;;5069875;28;20484;-79
2022/03/21 11:07:04;;;;;;;19.60;15.63;;;11.90;96.50;;;;;;5069092;28;20489;-79
2022/03/21 11:09:32;;;;;;;24.08;15.27;;;12.00;96.00;;;;;;5066858;28;20127;-79
2022/03/21 11:11:59;;;;;;;26.00;16.33;;;12.10;96.00;;;;;;5066892;28;20059;-79
2022/03/21 11:14:25;;;;;;;20.75;16.27;;;12.30;96.50;;;;;;5069851;28;20380;-79
2022/03/21 11:16:53;;;;;;;26.38;17.33;;;12.40;96.50;;;;;;5068331;28;20429;-79
2022/03/21 11:19:20;;;;;;;23.73;16.83;;;12.60;96.20;;;;;;5068957;28;20040;-80
2022/03/21 11:21:48;;;;;;;24.45;16.83;;;12.70;95.90;;;;;;5068574;28;20045;-79
2022/03/21 11:24:15;;;;;;;22.83;17.00;;;12.80;95.20;;;;;;5068503;28;20044;-82
2022/03/21 11:26:59;;;;;;;24.42;18.02;;;12.90;94.80;;;;;;5051474;28;20430;-80
2022/03/21 11:29:41;;;;;;;21.87;17.20;;;13.00;94.10;;;;;;5060469;28;20476;-80
2022/03/21 11:32:38;;;;;;;20.17;16.33;;;13.00;93.40;;;;;;5065786;28;20053;-79
2022/03/21 11:35:14;;;;;;;21.42;16.05;;;13.10;93.20;;;;;;5066662;28;20056;-80
2022/03/21 11:37:42;;;;;;;25.05;17.27;;;13.20;93.70;;;;;;5067169;28;20037;-81
2022/03/21 11:40:26;;;;;;;22.25;16.60;;;13.30;93.40;;;;;;5067476;28;20075;-80
2022/03/21 11:43:18;;;;;;;19.98;16.00;;;13.40;92.00;;;;;;5066709;28;20044;-80
2022/03/21 11:45:48;;;;;;;20.52;16.85;;;13.50;92.90;;;;;;5062022;28;20040;-80
2022/03/21 11:48:19;;;;;;;25.80;17.17;;;13.50;91.80;;;;;;5067843;28;20528;-80
2022/03/21 11:50:46;;;;;;;21.48;16.58;;;13.60;91.20;;;;;;5066761;28;20097;-79
2022/03/21 11:53:13;;;;;;;21.05;15.25;;;13.70;91.80;;;;;;5065998;28;20400;-79
2022/03/21 11:55:44;;;;;;;18.45;14.30;;;13.80;91.00;;;;;;5067103;28;20076;-81
2022/03/21 11:58:22;;;;;;;24.92;15.63;;;13.90;90.50;;;;;;5067654;28;20052;-80
2022/03/21 12:01:12;;;;;;;18.77;15.02;;;14.00;86.40;;;;;;5066554;28;20056;-80
2022/03/21 12:03:38;;;;;;;19.50;15.18;;;14.10;87.50;;;;;;5060943;28;20052;-81
2022/03/21 12:06:24;;;;;;;25.92;20.00;;;14.20;89.60;;;;;;5066029;28;20060;-80
2022/03/21 12:08:51;;;;;;;23.52;18.25;;;14.30;87.20;;;;;;5066834;28;20032;-81
2022/03/21 12:11:36;;;;;;;24.77;16.45;;;14.20;88.00;;;;;;5050019;28;20101;-80
2022/03/21 12:14:40;;;;;;;22.95;15.88;;;14.30;87.70;;;;;;5067221;28;20041;-80
2022/03/21 12:17:11;;;;;;;20.40;15.23;;;14.40;86.60;;;;;;5066273;28;20063;-81
2022/03/21 12:19:58;;;;;;;17.65;14.15;;;14.50;87.40;;;;;;5065874;28;20403;-82
2022/03/21 12:22:30;;;;;;;25.98;16.58;;;14.60;86.80;;;;;;5058843;28;20062;-80
2022/03/21 12:25:04;;;;;;;20.10;14.88;;;14.70;86.10;;;;;;5050261;28;20106;-81
2022/03/21 12:27:41;;;;;;;19.50;14.48;;;14.70;85.50;;;;;;5092421;28;20373;-83
2022/03/21 12:30:29;;;;;;;20.08;13.50;;;14.80;85.00;;;;;;5066190;28;20063;-81
2022/03/21 12:32:56;;;;;;;21.13;14.75;;;15.00;83.90;;;;;;5065436;28;20167;-80
2022/03/21 12:35:45;;;;;;;20.33;16.23;;;15.10;83.50;;;;;;5066966;28;20048;-80
2022/03/21 12:38:12;;;;;;;21.80;15.13;;;15.30;80.60;;;;;;5060945;28;20142;-81
2022/03/21 12:40:47;;;;;;;16.83;13.90;;;15.40;80.30;;;;;;5049163;28;20078;-80
2022/03/21 12:43:15;;;;;;;17.98;13.57;;;15.50;80.80;;;;;;5066246;28;20056;-81
2022/03/21 12:45:44;;;;;;;18.75;14.48;;;15.70;79.00;;;;;;5067706;28;20043;-83
2022/03/21 12:48:11;;;;;;;24.15;14.85;;;15.80;78.10;;;;;;5049506;28;20043;-80
2022/03/21 12:50:38;;;;;;;20.27;13.07;;;15.90;78.00;;;;;;5068109;28;20045;-80
2022/03/21 12:53:06;;;;;;;20.25;15.32;;;15.90;77.60;;;;;;5065285;28;20488;-80
2022/03/21 12:55:32;;;;;;;19.92;14.35;;;15.90;76.10;;;;;;5068056;28;20040;-81